Time;durP1;ratioP1;P1;durP2;ratioP2;P2;SDS_P1;SDS_P2;PMS_P1;PMS_P2;Temp;Humidity;BMP_temperature;BMP_pressure;BME280_temperature;BME280_humidity;BME280_pressure;Samples;Min_cycle;Max_cycle;Signal;HPM_P1;HPM_P2
2021/04/20 00:01:10;;;;;;;54.38;49.30;;;;;;;;;;4120066;34;20413;-84
2021/04/20 00:03:43;;;;;;;135.55;123.05;;;;;;;;;;4119723;34;20440;-84
2021/04/20 00:06:13;;;;;;;66.95;60.63;;;;;;;;;;4116186;34;20935;-85
2021/04/20 00:08:42;;;;;;;114.30;104.25;;;;;;;;;;4107872;34;20108;-87
2021/04/20 00:11:13;;;;;;;81.30;74.53;;;;;;;;;;4104911;34;20060;-86
2021/04/20 00:13:43;;;;;;;125.40;114.22;;;;;;;;;;4114050;34;20107;-86
2021/04/20 00:16:12;;;;;;;70.18;63.83;;;;;;;;;;4128443;34;20540;-85
2021/04/20 00:18:42;;;;;;;82.82;74.95;;;;;;;;;;4120287;34;20527;-84
2021/04/20 00:21:13;;;;;;;136.80;123.72;;;;;;;;;;4124654;34;20092;-88
2021/04/20 00:23:45;;;;;;;86.25;77.80;;;;;;;;;;4112457;34;20087;-84
2021/04/20 00:26:15;;;;;;;77.87;71.22;;;;;;;;;;4123431;34;20108;-85
2021/04/20 00:28:47;;;;;;;103.07;93.45;;;;;;;;;;4122229;34;20072;-84
2021/04/20 00:31:19;;;;;;;193.23;173.95;;;;;;;;;;4123144;34;20140;-85
2021/04/20 00:33:47;;;;;;;206.60;186.52;;;;;;;;;;4131734;34;20058;-82
2021/04/20 00:36:18;;;;;;;87.45;79.25;;;;;;;;;;4113243;34;20527;-85
2021/04/20 00:38:50;;;;;;;102.50;93.05;;;;;;;;;;4111472;34;20108;-84
2021/04/20 00:41:23;;;;;;;62.97;57.95;;;;;;;;;;4119646;34;20119;-86
2021/04/20 00:43:53;;;;;;;61.45;55.25;;;;;;;;;;4119860;34;20136;-84
2021/04/20 00:46:25;;;;;;;67.80;61.72;;;;;;;;;;4123017;34;20130;-85
2021/04/20 00:48:55;;;;;;;97.82;89.45;;;;;;;;;;4124463;34;20148;-85
2021/04/20 00:51:26;;;;;;;90.43;82.53;;;;;;;;;;4118837;34;20158;-85
2021/04/20 00:53:56;;;;;;;104.65;96.40;;;;;;;;;;4126568;34;20052;-84
2021/04/20 00:56:27;;;;;;;110.12;99.65;;;;;;;;;;4119926;34;20112;-83
2021/04/20 00:58:57;;;;;;;97.88;88.85;;;;;;;;;;4116590;34;20114;-84
2021/04/20 01:01:28;;;;;;;109.12;99.35;;;;;;;;;;4110696;34;20158;-84
2021/04/20 01:03:58;;;;;;;95.87;84.03;;;;;;;;;;4119822;34;20112;-86
2021/04/20 01:06:29;;;;;;;132.23;120.72;;;;;;;;;;4119834;34;20092;-85
2021/04/20 01:08:59;;;;;;;154.63;139.10;;;;;;;;;;4123903;34;20065;-83
2021/04/20 01:11:28;;;;;;;214.77;194.25;;;;;;;;;;4132273;34;20079;-84
2021/04/20 01:14:02;;;;;;;287.40;260.45;;;;;;;;;;4118979;34;20084;-81
2021/04/20 01:16:36;;;;;;;137.73;125.40;;;;;;;;;;4115534;34;20072;-85
2021/04/20 01:19:08;;;;;;;131.90;121.62;;;;;;;;;;4125830;34;20120;-83
2021/04/20 01:21:37;;;;;;;92.80;84.35;;;;;;;;;;4118840;34;20186;-84
2021/04/20 01:24:08;;;;;;;176.52;158.37;;;;;;;;;;4109898;34;20081;-84
2021/04/20 01:26:41;;;;;;;124.33;113.83;;;;;;;;;;4117717;34;20226;-82
2021/04/20 01:29:11;;;;;;;135.88;124.10;;;;;;;;;;4112003;34;20071;-85
2021/04/20 01:31:44;;;;;;;131.23;119.72;;;;;;;;;;4110962;34;20068;-84
2021/04/20 01:34:15;;;;;;;354.05;325.87;;;;;;;;;;4106506;34;20065;-86
2021/04/20 01:36:50;;;;;;;218.65;199.80;;;;;;;;;;4130180;34;20116;-86
2021/04/20 01:39:20;;;;;;;167.90;152.40;;;;;;;;;;4131141;34;20065;-84
2021/04/20 01:41:51;;;;;;;199.70;182.62;;;;;;;;;;4119854;34;20146;-83
2021/04/20 01:44:21;;;;;;;172.60;158.87;;;;;;;;;;4121813;34;20625;-83
2021/04/20 01:46:52;;;;;;;269.20;248.82;;;;;;;;;;4117242;34;20131;-82
2021/04/20 01:49:23;;;;;;;176.85;164.05;;;;;;;;;;4112213;34;20067;-84
2021/04/20 01:51:54;;;;;;;185.27;172.50;;;;;;;;;;4123441;34;20057;-84
2021/04/20 01:54:25;;;;;;;314.70;292.60;;;;;;;;;;4128088;34;20462;-83
2021/04/20 01:56:55;;;;;;;207.10;190.32;;;;;;;;;;4127432;34;20113;-83
2021/04/20 01:59:26;;;;;;;66.70;60.63;;;;;;;;;;4126365;34;20080;-85
2021/04/20 02:01:57;;;;;;;157.98;146.87;;;;;;;;;;4128945;34;20100;-87
2021/04/20 02:04:28;;;;;;;196.12;180.50;;;;;;;;;;4109248;34;20098;-82
2021/04/20 02:06:59;;;;;;;148.43;137.82;;;;;;;;;;4125765;34;20083;-84
2021/04/20 02:09:32;;;;;;;122.25;114.03;;;;;;;;;;4130657;34;20090;-80
2021/04/20 02:12:03;;;;;;;47.30;43.00;;;;;;;;;;4137044;34;20079;-84
2021/04/20 02:14:37;;;;;;;60.28;55.25;;;;;;;;;;4120319;34;20112;-82
2021/04/20 02:17:09;;;;;;;91.05;84.57;;;;;;;;;;4129775;34;20100;-83
2021/04/20 02:19:38;;;;;;;135.60;125.68;;;;;;;;;;4130125;34;20127;-82
2021/04/20 02:22:09;;;;;;;81.45;75.12;;;;;;;;;;4132036;34;20161;-81
2021/04/20 02:24:40;;;;;;;87.45;80.95;;;;;;;;;;4123301;34;20164;-85
2021/04/20 02:27:12;;;;;;;95.45;88.62;;;;;;;;;;4128227;34;20052;-84
2021/04/20 02:29:40;;;;;;;92.82;85.93;;;;;;;;;;4119157;34;20153;-85
2021/04/20 02:32:11;;;;;;;87.37;80.78;;;;;;;;;;4132278;34;20613;-82
2021/04/20 02:34:39;;;;;;;66.28;60.92;;;;;;;;;;4117679;34;20513;-83
2021/04/20 02:37:09;;;;;;;92.28;85.40;;;;;;;;;;4127814;34;20116;-83
2021/04/20 02:39:42;;;;;;;98.18;90.43;;;;;;;;;;4127914;34;20112;-82
2021/04/20 02:42:12;;;;;;;116.88;108.25;;;;;;;;;;4116896;34;20613;-86
2021/04/20 02:44:43;;;;;;;72.03;65.35;;;;;;;;;;4132176;34;20088;-86
2021/04/20 02:47:13;;;;;;;76.80;70.78;;;;;;;;;;4124539;34;20497;-87
2021/04/20 02:49:44;;;;;;;44.63;40.63;;;;;;;;;;4131506;34;20108;-83
2021/04/20 02:52:15;;;;;;;67.05;60.92;;;;;;;;;;4132674;34;20083;-86
2021/04/20 02:54:45;;;;;;;95.20;87.53;;;;;;;;;;4108495;34;20147;-83
2021/04/20 02:57:16;;;;;;;71.80;66.22;;;;;;;;;;4128138;34;20197;-83
2021/04/20 02:59:44;;;;;;;110.63;102.43;;;;;;;;;;4129480;34;20497;-85
2021/04/20 03:02:15;;;;;;;85.45;78.72;;;;;;;;;;4126465;34;20044;-82
2021/04/20 03:04:48;;;;;;;56.67;51.83;;;;;;;;;;4117905;34;20065;-84
2021/04/20 03:07:16;;;;;;;94.87;87.37;;;;;;;;;;4121897;34;21598;-83
2021/04/20 03:09:47;;;;;;;99.47;92.07;;;;;;;;;;4132571;34;20118;-82
2021/04/20 03:15:17;;;;;;;100.65;93.55;;;;;;;;;;4147401;29;20123;-84
2021/04/20 03:17:48;;;;;;;74.47;68.82;;;;;;;;;;4116843;34;20554;-86
2021/04/20 03:20:17;;;;;;;115.68;107.80;;;;;;;;;;4126542;34;20151;-84
2021/04/20 03:22:49;;;;;;;58.30;53.78;;;;;;;;;;4172163;29;20082;-84
2021/04/20 03:25:23;;;;;;;103.85;96.55;;;;;;;;;;4130538;34;20517;-84
2021/04/20 03:27:55;;;;;;;42.58;38.42;;;;;;;;;;4130947;34;20100;-84
2021/04/20 03:30:27;;;;;;;50.33;45.50;;;;;;;;;;4127444;34;20189;-84
2021/04/20 03:33:14;;;;;;;90.85;83.78;;;;;;;;;;4133590;34;20057;-84
2021/04/20 03:35:44;;;;;;;44.58;40.72;;;;;;;;;;4126574;34;20546;-83
2021/04/20 03:38:22;;;;;;;69.30;64.07;;;;;;;;;;4127577;34;20115;-84
2021/04/20 03:40:54;;;;;;;52.83;48.53;;;;;;;;;;4125683;34;20179;-83
2021/04/20 03:43:27;;;;;;;55.05;50.90;;;;;;;;;;4129286;34;20212;-83
2021/04/20 03:46:08;;;;;;;78.57;72.57;;;;;;;;;;4126715;34;20581;-83
2021/04/20 03:48:47;;;;;;;48.35;44.67;;;;;;;;;;4128612;34;20105;-84
2021/04/20 03:51:26;;;;;;;45.80;41.58;;;;;;;;;;4130970;34;20080;-83
2021/04/20 03:54:03;;;;;;;78.70;72.68;;;;;;;;;;4131086;34;20512;-85
2021/04/20 03:56:34;;;;;;;68.18;62.85;;;;;;;;;;4128934;34;20086;-84
2021/04/20 03:59:05;;;;;;;79.85;73.68;;;;;;;;;;4127671;34;20061;-84
2021/04/20 04:01:47;;;;;;;71.78;66.18;;;;;;;;;;4126956;34;20075;-84
2021/04/20 04:04:20;;;;;;;56.63;52.30;;;;;;;;;;4135220;34;20120;-84
2021/04/20 04:06:50;;;;;;;100.30;93.43;;;;;;;;;;4126788;34;20083;-83
2021/04/20 04:09:21;;;;;;;36.45;33.05;;;;;;;;;;4127286;34;20137;-84
2021/04/20 04:11:55;;;;;;;50.63;46.60;;;;;;;;;;4127524;34;20503;-84
2021/04/20 04:14:30;;;;;;;48.53;44.40;;;;;;;;;;4123075;34;20175;-84
2021/04/20 04:17:02;;;;;;;29.52;26.50;;;;;;;;;;4126216;34;20224;-83
2021/04/20 04:19:42;;;;;;;39.28;35.70;;;;;;;;;;4134817;34;20060;-84
2021/04/20 04:22:18;;;;;;;35.22;31.83;;;;;;;;;;4127591;34;20065;-84
2021/04/20 04:24:52;;;;;;;47.70;42.75;;;;;;;;;;4124542;34;20161;-83
2021/04/20 04:27:30;;;;;;;39.47;30.77;;;;;;;;;;4122190;34;21545;-84
2021/04/20 04:30:01;;;;;;;49.90;45.53;;;;;;;;;;4128453;34;21039;-84
2021/04/20 04:32:32;;;;;;;61.50;56.75;;;;;;;;;;4131095;34;20061;-82
2021/04/20 04:35:04;;;;;;;40.12;36.17;;;;;;;;;;4125392;34;20065;-84
2021/04/20 04:37:35;;;;;;;43.20;39.15;;;;;;;;;;4126035;34;20048;-84
2021/04/20 04:40:08;;;;;;;36.00;33.00;;;;;;;;;;4126877;34;20148;-84
2021/04/20 04:42:38;;;;;;;26.80;22.77;;;;;;;;;;4127110;34;20100;-84
2021/04/20 04:45:09;;;;;;;28.92;24.75;;;;;;;;;;4124855;34;20095;-84
2021/04/20 04:47:40;;;;;;;29.15;25.92;;;;;;;;;;4124738;34;20073;-83
2021/04/20 04:50:13;;;;;;;40.78;37.28;;;;;;;;;;4129992;34;20115;-85
2021/04/20 04:52:47;;;;;;;31.25;28.20;;;;;;;;;;4130126;34;20493;-84
2021/04/20 04:55:18;;;;;;;27.65;20.15;;;;;;;;;;4128622;34;20138;-84
2021/04/20 04:57:51;;;;;;;33.35;29.80;;;;;;;;;;4123578;34;20922;-83
2021/04/20 05:00:22;;;;;;;39.15;34.35;;;;;;;;;;4130454;34;20158;-84
2021/04/20 05:02:53;;;;;;;39.55;36.10;;;;;;;;;;4125814;34;20188;-83
2021/04/20 05:05:25;;;;;;;41.55;37.47;;;;;;;;;;4119383;34;20112;-83
2021/04/20 05:08:01;;;;;;;32.95;28.15;;;;;;;;;;4128119;34;20154;-83
2021/04/20 05:10:33;;;;;;;29.73;26.85;;;;;;;;;;4134580;34;20408;-84
2021/04/20 05:13:04;;;;;;;34.20;22.85;;;;;;;;;;4131908;34;20171;-84
2021/04/20 05:15:34;;;;;;;34.35;30.55;;;;;;;;;;4120759;34;20064;-82
2021/04/20 05:18:14;;;;;;;29.08;24.87;;;;;;;;;;4135194;34;20076;-83
2021/04/20 05:20:48;;;;;;;28.58;22.62;;;;;;;;;;4118606;34;20180;-83
2021/04/20 05:23:19;;;;;;;31.52;22.83;;;;;;;;;;4121011;34;20130;-83
2021/04/20 05:25:52;;;;;;;35.13;30.55;;;;;;;;;;4128595;34;20365;-83
2021/04/20 05:28:22;;;;;;;33.55;30.00;;;;;;;;;;4131970;34;20412;-84
2021/04/20 05:30:56;;;;;;;25.73;22.52;;;;;;;;;;4128061;34;20085;-83
2021/04/20 05:33:26;;;;;;;32.50;22.23;;;;;;;;;;4120620;34;20065;-83
2021/04/20 05:36:04;;;;;;;37.17;28.58;;;;;;;;;;4128900;34;20230;-84
2021/04/20 05:38:34;;;;;;;34.50;28.45;;;;;;;;;;4132251;34;21375;-83
2021/04/20 05:41:07;;;;;;;33.08;29.77;;;;;;;;;;4123744;34;20060;-83
2021/04/20 05:43:37;;;;;;;33.53;29.98;;;;;;;;;;4127946;34;21082;-83
2021/04/20 05:46:08;;;;;;;30.45;23.35;;;;;;;;;;4133624;34;20143;-83
2021/04/20 05:48:39;;;;;;;36.60;27.60;;;;;;;;;;4129694;34;20182;-84
2021/04/20 05:51:11;;;;;;;32.20;27.70;;;;;;;;;;4122548;34;20139;-83
2021/04/20 05:53:39;;;;;;;34.08;30.58;;;;;;;;;;4125978;34;20104;-84
2021/04/20 05:56:10;;;;;;;45.55;34.70;;;;;;;;;;4122675;34;20608;-84
2021/04/20 05:58:44;;;;;;;38.20;34.17;;;;;;;;;;4125635;34;20147;-82
2021/04/20 06:01:15;;;;;;;43.55;31.65;;;;;;;;;;4130121;34;20124;-83
2021/04/20 06:03:46;;;;;;;34.88;29.45;;;;;;;;;;4124211;34;20389;-83
2021/04/20 06:06:18;;;;;;;35.38;30.48;;;;;;;;;;4137083;34;20123;-83
2021/04/20 06:08:50;;;;;;;30.00;26.15;;;;;;;;;;4128375;34;20589;-84
2021/04/20 06:11:21;;;;;;;32.70;29.10;;;;;;;;;;4128056;34;20417;-84
2021/04/20 06:13:54;;;;;;;39.50;35.47;;;;;;;;;;4140426;34;20602;-84
2021/04/20 06:16:24;;;;;;;30.77;27.52;;;;;;;;;;4136650;34;20171;-84
2021/04/20 06:18:56;;;;;;;39.70;35.10;;;;;;;;;;4125964;34;20788;-84
2021/04/20 06:21:27;;;;;;;37.13;31.90;;;;;;;;;;4127995;34;20167;-84
2021/04/20 06:23:58;;;;;;;36.55;32.80;;;;;;;;;;4134183;34;20580;-83
2021/04/20 06:26:28;;;;;;;37.78;33.63;;;;;;;;;;4126413;34;20092;-84
2021/04/20 06:28:59;;;;;;;47.65;43.38;;;;;;;;;;4128070;34;20109;-83
2021/04/20 06:31:32;;;;;;;44.45;37.33;;;;;;;;;;4129591;34;20096;-84
2021/04/20 06:34:03;;;;;;;50.28;42.67;;;;;;;;;;4132343;34;20167;-84
2021/04/20 06:36:34;;;;;;;43.13;39.03;;;;;;;;;;4131724;34;20079;-83
2021/04/20 06:39:05;;;;;;;53.15;47.67;;;;;;;;;;4136104;34;20118;-84
2021/04/20 06:41:39;;;;;;;42.70;38.00;;;;;;;;;;4136376;34;20082;-84
2021/04/20 06:44:15;;;;;;;66.47;60.50;;;;;;;;;;4140482;34;20127;-84
2021/04/20 06:46:53;;;;;;;83.53;77.22;;;;;;;;;;4131668;34;20100;-84
2021/04/20 06:49:28;;;;;;;70.93;65.25;;;;;;;;;;4137965;34;20112;-85
2021/04/20 06:52:01;;;;;;;176.27;163.15;;;;;;;;;;4136548;34;20162;-85
2021/04/20 06:54:53;;;;;;;95.90;88.75;;;;;;;;;;4129930;34;20085;-84
2021/04/20 06:57:31;;;;;;;107.05;99.15;;;;;;;;;;4135770;34;20469;-84
2021/04/20 07:00:09;;;;;;;94.07;86.47;;;;;;;;;;4133007;34;20132;-83
2021/04/20 07:02:54;;;;;;;105.32;97.18;;;;;;;;;;4133810;34;20120;-83
2021/04/20 07:05:29;;;;;;;84.43;77.55;;;;;;;;;;4133837;34;20200;-84
2021/04/20 07:08:02;;;;;;;110.63;102.53;;;;;;;;;;4135221;34;20167;-83
2021/04/20 07:10:37;;;;;;;143.65;133.45;;;;;;;;;;4136886;34;20420;-84
2021/04/20 07:13:07;;;;;;;;;;;;;;;;;;4130577;34;20114;-84
2021/04/20 07:15:43;;;;;;;330.73;306.08;;;;;;;;;;4130762;34;20030;-83
2021/04/20 07:18:30;;;;;;;170.85;158.65;;;;;;;;;;4134929;34;20053;-84
2021/04/20 07:21:00;;;;;;;245.88;227.38;;;;;;;;;;4134300;34;20140;-84
2021/04/20 07:23:49;;;;;;;178.90;166.55;;;;;;;;;;4128160;34;20388;-83
2021/04/20 07:26:31;;;;;;;278.08;257.30;;;;;;;;;;4133335;34;20588;-84
2021/04/20 07:29:18;;;;;;;360.75;333.33;;;;;;;;;;4141224;34;20096;-84
2021/04/20 07:31:52;;;;;;;228.37;212.50;;;;;;;;;;4135286;34;20120;-84
2021/04/20 07:34:32;;;;;;;305.37;283.27;;;;;;;;;;4132224;34;20573;-84
2021/04/20 07:37:16;;;;;;;222.65;207.95;;;;;;;;;;4140540;34;20108;-83
2021/04/20 07:39:52;;;;;;;421.35;389.38;;;;;;;;;;4133441;34;20115;-84
2021/04/20 07:42:56;;;;;;;431.60;399.45;;;;;;;;;;4130005;34;20079;-85
2021/04/20 07:45:45;;;;;;;344.80;315.85;;;;;;;;;;4131804;34;20065;-84
2021/04/20 07:48:26;;;;;;;282.90;262.23;;;;;;;;;;4140155;34;20064;-84
2021/04/20 07:51:00;;;;;;;163.57;151.23;;;;;;;;;;4141675;34;20093;-84
2021/04/20 07:53:35;;;;;;;223.60;207.87;;;;;;;;;;4135867;34;20060;-83
2021/04/20 07:56:03;;;;;;;176.52;163.12;;;;;;;;;;4140039;34;20080;-84
2021/04/20 07:58:36;;;;;;;157.10;145.55;;;;;;;;;;4134568;34;20074;-84
2021/04/20 08:01:26;;;;;;;164.02;152.82;;;;;;;;;;4130265;34;20127;-84
2021/04/20 08:04:02;;;;;;;62.15;57.13;;;;;;;;;;4135213;34;20061;-84
2021/04/20 08:06:33;;;;;;;286.25;266.95;;;;;;;;;;4137024;34;20373;-83
2021/04/20 08:09:12;;;;;;;124.45;115.32;;;;;;;;;;4128133;34;20116;-84
2021/04/20 08:11:48;;;;;;;227.98;211.85;;;;;;;;;;4122124;34;20085;-83
2021/04/20 08:14:44;;;;;;;415.00;383.77;;;;;;;;;;4124983;34;20100;-84
2021/04/20 08:17:35;;;;;;;124.43;115.47;;;;;;;;;;4130912;34;20306;-84
2021/04/20 08:20:08;;;;;;;238.18;221.68;;;;;;;;;;4123862;34;20132;-83
2021/04/20 08:22:39;;;;;;;134.52;125.65;;;;;;;;;;4125224;34;20122;-83
2021/04/20 08:25:22;;;;;;;252.43;233.35;;;;;;;;;;4120634;34;20486;-84
2021/04/20 08:27:58;;;;;;;145.35;135.70;;;;;;;;;;4131457;34;20209;-83
2021/04/20 08:30:47;;;;;;;114.15;106.82;;;;;;;;;;4120580;34;20100;-84
2021/04/20 08:33:23;;;;;;;117.10;109.18;;;;;;;;;;4121032;34;20041;-84
2021/04/20 08:35:56;;;;;;;250.95;234.07;;;;;;;;;;4138085;34;20061;-84
2021/04/20 08:38:45;;;;;;;129.32;121.45;;;;;;;;;;4138021;34;20112;-84
2021/04/20 08:41:19;;;;;;;288.87;270.17;;;;;;;;;;4112052;34;20116;-84
2021/04/20 08:43:56;;;;;;;236.37;219.80;;;;;;;;;;4126829;34;21583;-84
2021/04/20 08:46:43;;;;;;;403.50;375.05;;;;;;;;;;4130678;34;20061;-84
2021/04/20 08:49:33;;;;;;;182.10;169.62;;;;;;;;;;4137815;34;20428;-85
2021/04/20 08:52:23;;;;;;;232.68;218.27;;;;;;;;;;4120706;34;20124;-85
2021/04/20 08:55:13;;;;;;;238.15;222.10;;;;;;;;;;4125909;34;20123;-85
2021/04/20 08:57:50;;;;;;;158.20;148.30;;;;;;;;;;4130095;34;20103;-85
2021/04/20 09:00:24;;;;;;;244.65;226.43;;;;;;;;;;4135639;34;20068;-84
2021/04/20 09:03:14;;;;;;;573.67;523.10;;;;;;;;;;4127740;34;20178;-85
2021/04/20 09:05:52;;;;;;;612.45;557.40;;;;;;;;;;4135523;34;20100;-85
2021/04/20 09:08:32;;;;;;;564.00;517.00;;;;;;;;;;4135444;34;20105;-85
2021/04/20 09:11:13;;;;;;;248.55;228.93;;;;;;;;;;4124408;34;21457;-85
2021/04/20 09:14:02;;;;;;;394.05;361.17;;;;;;;;;;4135500;34;20092;-84
2021/04/20 09:16:47;;;;;;;605.33;555.08;;;;;;;;;;4127787;34;20065;-84
2021/04/20 09:19:32;;;;;;;524.17;479.35;;;;;;;;;;4132553;34;20116;-85
2021/04/20 09:22:11;;;;;;;568.63;518.17;;;;;;;;;;4127613;34;20135;-85
2021/04/20 09:25:04;;;;;;;610.10;558.72;;;;;;;;;;4132071;34;20091;-84
2021/04/20 09:27:52;;;;;;;641.42;582.65;;;;;;;;;;4138630;34;20107;-84
2021/04/20 09:30:23;;;;;;;555.30;503.05;;;;;;;;;;4125133;34;20060;-85
2021/04/20 09:32:55;;;;;;;661.80;605.63;;;;;;;;;;4131309;34;20431;-85
2021/04/20 09:35:26;;;;;;;333.73;301.67;;;;;;;;;;4141178;34;20354;-85
2021/04/20 09:37:57;;;;;;;582.30;529.78;;;;;;;;;;4132160;34;20690;-85
2021/04/20 09:40:30;;;;;;;284.37;260.85;;;;;;;;;;4130192;34;20774;-85
2021/04/20 09:43:18;;;;;;;490.35;445.17;;;;;;;;;;4132116;34;20092;-85
2021/04/20 09:46:08;;;;;;;202.35;185.57;;;;;;;;;;4131399;34;20108;-85
2021/04/20 09:48:44;;;;;;;306.35;281.73;;;;;;;;;;4132594;34;20069;-85
2021/04/20 09:51:30;;;;;;;411.52;376.62;;;;;;;;;;4130983;34;20123;-85
2021/04/20 09:54:17;;;;;;;497.42;453.83;;;;;;;;;;4140048;34;20678;-85
2021/04/20 09:57:01;;;;;;;608.45;552.50;;;;;;;;;;4139494;34;20120;-84
2021/04/20 09:59:43;;;;;;;377.02;344.17;;;;;;;;;;4133052;34;20109;-85
2021/04/20 10:02:28;;;;;;;358.87;327.80;;;;;;;;;;4132144;34;20148;-86
2021/04/20 10:05:02;;;;;;;343.73;311.85;;;;;;;;;;4137081;34;20163;-85
2021/04/20 10:07:51;;;;;;;433.62;398.10;;;;;;;;;;4130227;34;20073;-85
2021/04/20 10:10:25;;;;;;;668.35;613.83;;;;;;;;;;4131714;34;20736;-85
2021/04/20 10:13:18;;;;;;;528.17;483.33;;;;;;;;;;4137956;34;20099;-85
2021/04/20 10:16:05;;;;;;;338.60;310.63;;;;;;;;;;4116081;34;20119;-85
2021/04/20 10:18:50;;;;;;;373.98;342.33;;;;;;;;;;4133172;34;20173;-85
2021/04/20 10:21:28;;;;;;;650.15;596.97;;;;;;;;;;4134969;34;20436;-85
2021/04/20 10:24:02;;;;;;;350.58;322.05;;;;;;;;;;4138978;34;20057;-85
2021/04/20 10:26:45;;;;;;;352.90;323.73;;;;;;;;;;4133656;34;20112;-85
2021/04/20 10:29:23;;;;;;;696.50;632.33;;;;;;;;;;4131713;34;20063;-86
2021/04/20 10:31:56;;;;;;;296.95;271.55;;;;;;;;;;4137537;34;20061;-85
2021/04/20 10:34:25;;;;;;;404.83;371.23;;;;;;;;;;4135908;34;20060;-85
2021/04/20 10:36:57;;;;;;;398.00;363.80;;;;;;;;;;4137820;34;20166;-85
2021/04/20 10:39:30;;;;;;;212.25;194.15;;;;;;;;;;4133496;34;20148;-85
2021/04/20 10:42:01;;;;;;;442.55;404.30;;;;;;;;;;4140330;34;20122;-85
2021/04/20 10:44:32;;;;;;;420.23;386.15;;;;;;;;;;4138567;34;20108;-85
2021/04/20 10:47:04;;;;;;;461.90;422.10;;;;;;;;;;4140392;34;20251;-85
2021/04/20 10:49:33;;;;;;;172.10;158.75;;;;;;;;;;4137744;34;20498;-85
2021/04/20 10:52:11;;;;;;;660.00;602.05;;;;;;;;;;4142940;34;20453;-85
2021/04/20 10:54:44;;;;;;;482.58;439.13;;;;;;;;;;4144405;34;20049;-85
2021/04/20 10:57:15;;;;;;;431.02;392.85;;;;;;;;;;4133774;34;20060;-84
2021/04/20 10:59:54;;;;;;;570.70;516.50;;;;;;;;;;4135329;34;20199;-85
2021/04/20 11:02:27;;;;;;;682.05;619.33;;;;;;;;;;4135119;34;20088;-85
2021/04/20 11:04:59;;;;;;;834.85;756.78;;;;;;;;;;4135474;34;20092;-86
2021/04/20 11:07:33;;;;;;;362.10;332.90;;;;;;;;;;4136121;34;20121;-85
2021/04/20 11:10:03;;;;;;;;;;;;;;;;;;4142534;34;20065;-86
2021/04/20 11:12:40;;;;;;;802.92;721.67;;;;;;;;;;4139145;34;19986;-85
2021/04/20 11:15:15;;;;;;;836.78;758.67;;;;;;;;;;4131099;34;20651;-84
2021/04/20 11:17:50;;;;;;;749.25;681.67;;;;;;;;;;4133340;34;20096;-85
2021/04/20 11:20:35;;;;;;;431.87;391.55;;;;;;;;;;4138735;34;20145;-85
2021/04/20 11:23:03;;;;;;;;;;;;;;;;;;4134316;34;20065;-84
2021/04/20 11:25:42;;;;;;;636.38;577.35;;;;;;;;;;4137280;34;20322;-85
2021/04/20 11:28:25;;;;;;;771.63;693.25;;;;;;;;;;4137282;34;20118;-84
2021/04/20 11:31:01;;;;;;;731.65;667.15;;;;;;;;;;4135258;34;20134;-85
2021/04/20 11:33:41;;;;;;;727.17;658.53;;;;;;;;;;4136274;34;20516;-85
2021/04/20 11:36:21;;;;;;;577.05;526.97;;;;;;;;;;4129861;34;20053;-84
2021/04/20 11:38:53;;;;;;;586.20;538.33;;;;;;;;;;4124519;34;20478;-84
2021/04/20 11:41:46;;;;;;;678.65;616.00;;;;;;;;;;4126659;34;20358;-86
2021/04/20 11:44:18;;;;;;;488.40;445.62;;;;;;;;;;4106810;34;20503;-85
2021/04/20 11:46:49;;;;;;;564.15;511.50;;;;;;;;;;4116558;34;20108;-86
2021/04/20 11:49:25;;;;;;;652.13;596.40;;;;;;;;;;4116883;34;20147;-86
2021/04/20 11:51:53;;;;;;;461.00;419.00;;;;;;;;;;4121090;34;20092;-86
2021/04/20 11:54:25;;;;;;;634.55;579.58;;;;;;;;;;4123260;34;20174;-85
2021/04/20 11:56:59;;;;;;;401.10;365.85;;;;;;;;;;4124138;34;20179;-86
2021/04/20 11:59:31;;;;;;;482.35;441.00;;;;;;;;;;4126149;34;20127;-84
2021/04/20 12:02:00;;;;;;;652.75;594.05;;;;;;;;;;4129394;34;20093;-85
2021/04/20 12:04:38;;;;;;;220.23;202.13;;;;;;;;;;4120159;34;20096;-85
2021/04/20 12:07:09;;;;;;;530.83;483.38;;;;;;;;;;4131345;34;20142;-85
2021/04/20 12:09:41;;;;;;;429.70;392.58;;;;;;;;;;4132756;34;20169;-85
2021/04/20 12:12:12;;;;;;;589.40;539.17;;;;;;;;;;4142820;34;20449;-85
2021/04/20 12:14:44;;;;;;;708.90;643.20;;;;;;;;;;4128265;34;20530;-84
2021/04/20 12:17:24;;;;;;;666.88;601.87;;;;;;;;;;4134446;34;22015;-86
2021/04/20 12:19:57;;;;;;;695.38;632.33;;;;;;;;;;4127244;34;20657;-85
2021/04/20 12:22:29;;;;;;;638.80;575.80;;;;;;;;;;4125496;34;20431;-86
2021/04/20 12:25:01;;;;;;;761.90;685.80;;;;;;;;;;4133168;34;20073;-86
2021/04/20 12:27:32;;;;;;;672.90;613.12;;;;;;;;;;4135627;34;20218;-85
2021/04/20 12:30:03;;;;;;;704.40;640.05;;;;;;;;;;4123042;34;20057;-85
2021/04/20 12:32:54;;;;;;;833.50;752.47;;;;;;;;;;4127769;34;20057;-86
2021/04/20 12:35:30;;;;;;;540.22;492.80;;;;;;;;;;4123615;34;20465;-84
2021/04/20 12:38:04;;;;;;;733.25;664.53;;;;;;;;;;4116416;34;20262;-86
2021/04/20 12:40:36;;;;;;;674.22;610.80;;;;;;;;;;4125468;34;20084;-86
2021/04/20 12:43:11;;;;;;;767.72;695.80;;;;;;;;;;4128836;34;20170;-86
2021/04/20 12:45:42;;;;;;;710.15;643.25;;;;;;;;;;4132847;34;20091;-86
2021/04/20 12:48:14;;;;;;;438.60;398.77;;;;;;;;;;4127103;34;20113;-86
2021/04/20 12:50:47;;;;;;;567.37;516.17;;;;;;;;;;4125297;34;20150;-85
2021/04/20 12:53:19;;;;;;;750.30;671.42;;;;;;;;;;4125212;34;20169;-85
2021/04/20 12:55:51;;;;;;;297.50;269.13;;;;;;;;;;4134596;34;20088;-84
2021/04/20 12:58:24;;;;;;;325.60;292.80;;;;;;;;;;4127312;34;20178;-85
2021/04/20 13:01:00;;;;;;;394.95;356.58;;;;;;;;;;4127962;34;20126;-85
2021/04/20 13:03:31;;;;;;;309.85;283.58;;;;;;;;;;4135407;34;20138;-84
2021/04/20 13:06:10;;;;;;;525.35;474.92;;;;;;;;;;4111131;34;20439;-85
2021/04/20 13:08:48;;;;;;;187.57;171.20;;;;;;;;;;4123632;34;20111;-86
2021/04/20 13:11:26;;;;;;;387.12;346.70;;;;;;;;;;4124425;34;20108;-85
2021/04/20 13:13:57;;;;;;;526.42;480.45;;;;;;;;;;4130930;34;20575;-85
2021/04/20 13:16:30;;;;;;;549.50;498.60;;;;;;;;;;4133992;34;20796;-85
2021/04/20 13:19:05;;;;;;;214.32;195.05;;;;;;;;;;4133785;34;20104;-84
2021/04/20 13:21:40;;;;;;;539.10;490.17;;;;;;;;;;4117880;34;20116;-85
2021/04/20 13:24:13;;;;;;;326.85;297.73;;;;;;;;;;4123758;34;20123;-86
2021/04/20 13:26:48;;;;;;;387.88;353.25;;;;;;;;;;4127523;34;20182;-86
2021/04/20 13:29:21;;;;;;;542.47;493.90;;;;;;;;;;4129738;34;20116;-85
2021/04/20 13:31:52;;;;;;;586.58;532.58;;;;;;;;;;4130437;34;20128;-85
2021/04/20 13:34:39;;;;;;;601.53;544.53;;;;;;;;;;4123479;34;20136;-85
2021/04/20 13:37:29;;;;;;;438.52;399.30;;;;;;;;;;4134367;34;20061;-86
2021/04/20 13:40:06;;;;;;;516.65;470.50;;;;;;;;;;4137708;34;20137;-85
2021/04/20 13:42:37;;;;;;;571.95;518.95;;;;;;;;;;4133098;34;20080;-85
2021/04/20 13:45:08;;;;;;;520.92;466.95;;;;;;;;;;4132081;34;20617;-85
2021/04/20 13:47:43;;;;;;;427.27;390.98;;;;;;;;;;4135047;34;20073;-85
2021/04/20 13:50:36;;;;;;;637.75;574.67;;;;;;;;;;4135949;34;20069;-85
2021/04/20 13:53:16;;;;;;;616.75;488.40;;;;;;;;;;4123844;34;20184;-85
2021/04/20 13:55:47;;;;;;;536.88;485.52;;;;;;;;;;4134530;34;20706;-85
2021/04/20 13:58:21;;;;;;;821.78;730.58;;;;;;;;;;4134754;34;20345;-85
2021/04/20 14:00:57;;;;;;;651.53;586.05;;;;;;;;;;4127522;34;20104;-85
2021/04/20 14:03:29;;;;;;;361.30;325.13;;;;;;;;;;4132628;34;20057;-86
2021/04/20 14:06:18;;;;;;;565.62;517.58;;;;;;;;;;4139601;34;20111;-85
2021/04/20 14:08:58;;;;;;;624.25;568.70;;;;;;;;;;4135519;34;20131;-84
2021/04/20 14:11:37;;;;;;;401.92;341.15;;;;;;;;;;4130902;34;20108;-85
2021/04/20 14:14:10;;;;;;;620.65;557.40;;;;;;;;;;4141360;34;20133;-85
2021/04/20 14:16:41;;;;;;;715.45;638.75;;;;;;;;;;4140906;34;20116;-85
2021/04/20 14:19:13;;;;;;;688.83;613.25;;;;;;;;;;4139510;34;20531;-85
2021/04/20 14:21:45;;;;;;;619.35;563.15;;;;;;;;;;4138622;34;20350;-85
2021/04/20 14:24:20;;;;;;;673.13;605.50;;;;;;;;;;4127204;34;20065;-85
2021/04/20 14:26:52;;;;;;;645.30;582.50;;;;;;;;;;4140429;34;20057;-85
2021/04/20 14:29:25;;;;;;;691.20;620.00;;;;;;;;;;4130913;34;20091;-84
2021/04/20 14:31:55;;;;;;;549.88;497.98;;;;;;;;;;4134874;34;20426;-86
2021/04/20 14:34:30;;;;;;;644.25;579.33;;;;;;;;;;4137876;34;20061;-84
2021/04/20 14:37:00;;;;;;;;;;;;;;;;;;4132230;34;20080;-85
2021/04/20 14:39:33;;;;;;;502.45;451.60;;;;;;;;;;4132556;34;20429;-84
2021/04/20 14:42:05;;;;;;;534.23;479.57;;;;;;;;;;4138329;34;20087;-85
2021/04/20 14:44:40;;;;;;;536.35;489.55;;;;;;;;;;4135822;34;20061;-85
2021/04/20 14:47:19;;;;;;;379.67;347.10;;;;;;;;;;4134078;34;20125;-84
2021/04/20 14:49:52;;;;;;;504.98;458.58;;;;;;;;;;4133065;34;20164;-85